sensor_id;sensor_type;location;lat;lon;timestamp;pressure;altitude;pressure_sealevel;temperature;humidity
72570;BME280;60594;50.204;8.844;2023-04-09T00:00:10;100873.03;;;6.56;82.54
72570;BME280;60594;50.204;8.844;2023-04-09T00:02:59;100876.66;;;6.71;82.44
72570;BME280;60594;50.204;8.844;2023-04-09T00:05:26;100868.44;;;6.60;84.53
72570;BME280;60594;50.204;8.844;2023-04-09T00:07:53;100873.63;;;6.61;85.64
72570;BME280;60594;50.204;8.844;2023-04-09T00:10:20;100877.44;;;6.73;82.75
72570;BME280;60594;50.204;8.844;2023-04-09T00:12:46;100872.88;;;6.59;84.81
72570;BME280;60594;50.204;8.844;2023-04-09T00:15:13;100869.13;;;6.63;85.04
72570;BME280;60594;50.204;8.844;2023-04-09T00:17:39;100869.72;;;6.53;86.43
72570;BME280;60594;50.204;8.844;2023-04-09T00:20:07;100865.25;;;6.53;85.76
72570;BME280;60594;50.204;8.844;2023-04-09T00:22:33;100866.56;;;6.62;84.91
72570;BME280;60594;50.204;8.844;2023-04-09T00:25:00;100866.88;;;6.56;85.79
72570;BME280;60594;50.204;8.844;2023-04-09T00:27:26;100865.16;;;6.72;85.97
72570;BME280;60594;50.204;8.844;2023-04-09T00:29:53;100871.19;;;6.74;86.15
72570;BME280;60594;50.204;8.844;2023-04-09T00:32:20;100862.22;;;6.76;84.74
72570;BME280;60594;50.204;8.844;2023-04-09T00:34:47;100859.41;;;6.79;84.25
72570;BME280;60594;50.204;8.844;2023-04-09T00:37:13;100867.13;;;6.84;81.93
72570;BME280;60594;50.204;8.844;2023-04-09T00:39:40;100851.81;;;6.89;81.94
72570;BME280;60594;50.204;8.844;2023-04-09T00:42:06;100850.34;;;6.83;83.46
72570;BME280;60594;50.204;8.844;2023-04-09T00:44:33;100853.09;;;6.82;83.19
72570;BME280;60594;50.204;8.844;2023-04-09T00:47:00;100844.75;;;6.89;82.55
72570;BME280;60594;50.204;8.844;2023-04-09T00:49:26;100845.06;;;6.83;83.01
72570;BME280;60594;50.204;8.844;2023-04-09T00:51:53;100847.97;;;6.79;84.26
72570;BME280;60594;50.204;8.844;2023-04-09T00:54:20;100850.13;;;6.88;83.91
72570;BME280;60594;50.204;8.844;2023-04-09T00:56:47;100842.00;;;6.91;82.06
72570;BME280;60594;50.204;8.844;2023-04-09T00:59:13;100845.31;;;6.94;82.51
72570;BME280;60594;50.204;8.844;2023-04-09T01:01:40;100844.03;;;6.86;83.64
72570;BME280;60594;50.204;8.844;2023-04-09T01:04:07;100840.91;;;6.95;83.92
72570;BME280;60594;50.204;8.844;2023-04-09T01:06:44;100843.53;;;6.95;81.61
72570;BME280;60594;50.204;8.844;2023-04-09T01:09:25;100846.44;;;6.90;81.46
72570;BME280;60594;50.204;8.844;2023-04-09T01:12:19;100848.53;;;6.68;84.23
72570;BME280;60594;50.204;8.844;2023-04-09T01:15:02;100848.19;;;6.59;85.01
72570;BME280;60594;50.204;8.844;2023-04-09T01:17:40;100845.91;;;6.68;85.64
72570;BME280;60594;50.204;8.844;2023-04-09T01:20:17;100844.44;;;6.63;85.49
72570;BME280;60594;50.204;8.844;2023-04-09T01:22:58;100854.94;;;6.64;86.40
72570;BME280;60594;50.204;8.844;2023-04-09T01:30:32;100852.88;;;6.54;84.05
72570;BME280;60594;50.204;8.844;2023-04-09T01:32:59;100849.06;;;6.59;84.49
72570;BME280;60594;50.204;8.844;2023-04-09T01:35:27;100845.38;;;6.62;84.28
72570;BME280;60594;50.204;8.844;2023-04-09T01:37:54;100850.22;;;6.54;84.99
72570;BME280;60594;50.204;8.844;2023-04-09T01:40:22;100850.84;;;6.59;84.76
72570;BME280;60594;50.204;8.844;2023-04-09T01:42:49;100850.69;;;6.62;83.63
72570;BME280;60594;50.204;8.844;2023-04-09T01:45:17;100853.63;;;6.56;85.00
72570;BME280;60594;50.204;8.844;2023-04-09T01:47:44;100857.94;;;6.58;85.43
72570;BME280;60594;50.204;8.844;2023-04-09T01:50:11;100845.09;;;6.51;85.88
72570;BME280;60594;50.204;8.844;2023-04-09T01:52:38;100844.44;;;6.63;84.08
72570;BME280;60594;50.204;8.844;2023-04-09T01:55:05;100844.69;;;6.58;83.93
72570;BME280;60594;50.204;8.844;2023-04-09T01:57:32;100845.78;;;6.54;84.10
72570;BME280;60594;50.204;8.844;2023-04-09T01:59:59;100854.09;;;6.31;87.40
72570;BME280;60594;50.204;8.844;2023-04-09T02:02:38;100842.97;;;6.25;87.82
72570;BME280;60594;50.204;8.844;2023-04-09T02:05:09;100843.91;;;6.24;87.74
72570;BME280;60594;50.204;8.844;2023-04-09T02:07:42;100849.50;;;6.35;86.07
72570;BME280;60594;50.204;8.844;2023-04-09T02:10:12;100848.31;;;6.40;85.08
72570;BME280;60594;50.204;8.844;2023-04-09T02:12:44;100847.00;;;6.32;86.72
72570;BME280;60594;50.204;8.844;2023-04-09T02:15:14;100851.66;;;6.27;87.39
72570;BME280;60594;50.204;8.844;2023-04-09T02:17:41;100851.78;;;6.25;87.24
72570;BME280;60594;50.204;8.844;2023-04-09T02:20:08;100850.84;;;6.26;87.50
72570;BME280;60594;50.204;8.844;2023-04-09T02:22:34;100850.13;;;6.23;87.83
72570;BME280;60594;50.204;8.844;2023-04-09T02:25:01;100860.09;;;6.35;87.97
72570;BME280;60594;50.204;8.844;2023-04-09T02:27:27;100849.13;;;6.25;88.70
72570;BME280;60594;50.204;8.844;2023-04-09T02:29:54;100851.06;;;6.22;88.99
72570;BME280;60594;50.204;8.844;2023-04-09T02:32:20;100859.09;;;6.20;89.49
72570;BME280;60594;50.204;8.844;2023-04-09T02:34:47;100850.84;;;6.26;87.61
72570;BME280;60594;50.204;8.844;2023-04-09T02:37:14;100847.47;;;6.23;86.41
72570;BME280;60594;50.204;8.844;2023-04-09T02:39:40;100850.75;;;6.28;86.47
72570;BME280;60594;50.204;8.844;2023-04-09T02:42:07;100845.19;;;6.32;85.86
72570;BME280;60594;50.204;8.844;2023-04-09T02:44:34;100847.47;;;6.23;87.37
72570;BME280;60594;50.204;8.844;2023-04-09T02:47:00;100838.91;;;6.35;85.92
72570;BME280;60594;50.204;8.844;2023-04-09T02:49:27;100846.94;;;6.16;88.43
72570;BME280;60594;50.204;8.844;2023-04-09T02:51:53;100843.28;;;6.19;87.87
72570;BME280;60594;50.204;8.844;2023-04-09T02:54:20;100842.16;;;6.07;89.53
72570;BME280;60594;50.204;8.844;2023-04-09T02:56:47;100837.75;;;6.06;90.08
72570;BME280;60594;50.204;8.844;2023-04-09T02:59:13;100842.06;;;6.09;89.14
72570;BME280;60594;50.204;8.844;2023-04-09T03:01:40;100845.84;;;6.20;87.75
72570;BME280;60594;50.204;8.844;2023-04-09T03:04:07;100838.06;;;6.17;88.53
72570;BME280;60594;50.204;8.844;2023-04-09T03:06:33;100837.38;;;6.14;89.35
72570;BME280;60594;50.204;8.844;2023-04-09T03:09:00;100833.88;;;6.13;87.11
72570;BME280;60594;50.204;8.844;2023-04-09T03:11:26;100833.72;;;6.16;86.74
72570;BME280;60594;50.204;8.844;2023-04-09T03:13:53;100830.31;;;6.14;88.07
72570;BME280;60594;50.204;8.844;2023-04-09T03:16:19;100827.25;;;6.22;86.78
72570;BME280;60594;50.204;8.844;2023-04-09T03:18:46;100833.25;;;6.25;85.77
72570;BME280;60594;50.204;8.844;2023-04-09T03:21:12;100822.81;;;6.22;85.43
72570;BME280;60594;50.204;8.844;2023-04-09T03:23:45;100831.16;;;6.15;86.76
72570;BME280;60594;50.204;8.844;2023-04-09T03:26:11;100825.25;;;5.93;88.93
72570;BME280;60594;50.204;8.844;2023-04-09T03:28:44;100823.69;;;5.89;88.57
72570;BME280;60594;50.204;8.844;2023-04-09T03:31:11;100827.50;;;5.83;88.87
72570;BME280;60594;50.204;8.844;2023-04-09T03:33:40;100828.63;;;5.96;87.37
72570;BME280;60594;50.204;8.844;2023-04-09T03:36:08;100827.50;;;6.00;88.49
72570;BME280;60594;50.204;8.844;2023-04-09T03:38:45;100819.66;;;5.99;87.99
72570;BME280;60594;50.204;8.844;2023-04-09T03:41:25;100819.97;;;6.10;86.68
72570;BME280;60594;50.204;8.844;2023-04-09T03:43:52;100820.91;;;6.09;87.80
72570;BME280;60594;50.204;8.844;2023-04-09T03:46:22;100820.13;;;6.07;87.96
72570;BME280;60594;50.204;8.844;2023-04-09T03:48:50;100818.25;;;6.09;87.58
72570;BME280;60594;50.204;8.844;2023-04-09T03:51:17;100816.22;;;6.14;87.15
72570;BME280;60594;50.204;8.844;2023-04-09T03:53:49;100820.56;;;6.15;87.62
72570;BME280;60594;50.204;8.844;2023-04-09T03:56:16;100824.28;;;6.28;86.40
72570;BME280;60594;50.204;8.844;2023-04-09T03:58:43;100822.09;;;6.19;87.88
72570;BME280;60594;50.204;8.844;2023-04-09T04:01:12;100826.56;;;6.18;88.50
72570;BME280;60594;50.204;8.844;2023-04-09T04:03:48;100824.84;;;6.17;87.98
72570;BME280;60594;50.204;8.844;2023-04-09T04:06:21;100817.53;;;6.22;88.12
72570;BME280;60594;50.204;8.844;2023-04-09T04:09:19;100817.84;;;6.16;88.92
72570;BME280;60594;50.204;8.844;2023-04-09T04:12:00;100820.19;;;6.22;87.67
72570;BME280;60594;50.204;8.844;2023-04-09T04:14:41;100820.94;;;6.24;88.05
72570;BME280;60594;50.204;8.844;2023-04-09T04:17:17;100816.50;;;6.25;87.71
72570;BME280;60594;50.204;8.844;2023-04-09T04:19:44;100810.13;;;6.29;87.23
72570;BME280;60594;50.204;8.844;2023-04-09T04:22:11;100812.47;;;6.18;88.96
72570;BME280;60594;50.204;8.844;2023-04-09T04:24:41;100818.94;;;6.12;89.11
72570;BME280;60594;50.204;8.844;2023-04-09T04:27:07;100822.19;;;6.17;88.43
72570;BME280;60594;50.204;8.844;2023-04-09T04:29:35;100819.59;;;6.00;89.42
72570;BME280;60594;50.204;8.844;2023-04-09T04:32:03;100820.13;;;6.07;90.64
72570;BME280;60594;50.204;8.844;2023-04-09T04:34:36;100819.38;;;6.20;88.80
72570;BME280;60594;50.204;8.844;2023-04-09T04:37:12;100823.84;;;6.20;88.95
72570;BME280;60594;50.204;8.844;2023-04-09T04:39:39;100822.09;;;6.19;88.68
72570;BME280;60594;50.204;8.844;2023-04-09T04:42:15;100826.94;;;6.28;88.42
72570;BME280;60594;50.204;8.844;2023-04-09T04:44:43;100821.72;;;6.26;89.22
72570;BME280;60594;50.204;8.844;2023-04-09T04:47:15;100823.66;;;6.23;89.51
72570;BME280;60594;50.204;8.844;2023-04-09T04:49:42;100825.84;;;6.15;89.59
72570;BME280;60594;50.204;8.844;2023-04-09T04:52:09;100827.19;;;6.06;90.62
72570;BME280;60594;50.204;8.844;2023-04-09T04:54:38;100828.13;;;6.05;90.88
72570;BME280;60594;50.204;8.844;2023-04-09T04:57:05;100828.50;;;6.15;89.62
72570;BME280;60594;50.204;8.844;2023-04-09T04:59:37;100833.94;;;6.29;89.01
72570;BME280;60594;50.204;8.844;2023-04-09T05:02:06;100832.91;;;6.31;88.52
72570;BME280;60594;50.204;8.844;2023-04-09T05:04:42;100828.78;;;6.43;89.02
72570;BME280;60594;50.204;8.844;2023-04-09T05:07:12;100829.59;;;6.43;88.33
72570;BME280;60594;50.204;8.844;2023-04-09T05:09:47;100832.59;;;6.37;88.52
72570;BME280;60594;50.204;8.844;2023-04-09T05:12:13;100838.56;;;6.41;88.84
72570;BME280;60594;50.204;8.844;2023-04-09T05:14:43;100834.75;;;6.46;88.01
72570;BME280;60594;50.204;8.844;2023-04-09T05:17:09;100838.34;;;6.45;87.81
72570;BME280;60594;50.204;8.844;2023-04-09T05:19:50;100837.75;;;6.40;88.11
72570;BME280;60594;50.204;8.844;2023-04-09T05:22:18;100838.34;;;6.45;88.68
72570;BME280;60594;50.204;8.844;2023-04-09T05:24:46;100837.19;;;6.34;88.86
72570;BME280;60594;50.204;8.844;2023-04-09T05:27:13;100839.75;;;6.35;88.83
72570;BME280;60594;50.204;8.844;2023-04-09T05:29:41;100839.13;;;6.47;87.87
72570;BME280;60594;50.204;8.844;2023-04-09T05:32:08;100845.97;;;6.51;89.07
72570;BME280;60594;50.204;8.844;2023-04-09T05:34:37;100838.53;;;6.58;88.38
72570;BME280;60594;50.204;8.844;2023-04-09T05:37:04;100833.91;;;6.61;88.36
72570;BME280;60594;50.204;8.844;2023-04-09T05:39:32;100846.69;;;6.70;89.00
72570;BME280;60594;50.204;8.844;2023-04-09T05:41:59;100847.13;;;6.78;88.05
72570;BME280;60594;50.204;8.844;2023-04-09T05:44:31;100846.59;;;6.87;87.43
72570;BME280;60594;50.204;8.844;2023-04-09T05:47:04;100845.94;;;6.84;87.71
72570;BME280;60594;50.204;8.844;2023-04-09T05:49:38;100843.59;;;6.78;88.45
72570;BME280;60594;50.204;8.844;2023-04-09T05:52:10;100856.38;;;6.87;87.84
72570;BME280;60594;50.204;8.844;2023-04-09T05:54:36;100861.50;;;6.90;88.14
72570;BME280;60594;50.204;8.844;2023-04-09T05:57:05;100849.97;;;6.91;86.36
72570;BME280;60594;50.204;8.844;2023-04-09T05:59:35;100852.19;;;6.83;87.43
72570;BME280;60594;50.204;8.844;2023-04-09T06:02:02;100848.56;;;6.84;86.46
72570;BME280;60594;50.204;8.844;2023-04-09T06:04:29;100855.66;;;6.83;86.95
72570;BME280;60594;50.204;8.844;2023-04-09T06:06:55;100854.75;;;7.00;85.46
72570;BME280;60594;50.204;8.844;2023-04-09T06:09:25;100853.28;;;6.94;86.21
72570;BME280;60594;50.204;8.844;2023-04-09T06:11:52;100857.47;;;6.83;87.71
72570;BME280;60594;50.204;8.844;2023-04-09T06:14:19;100850.72;;;6.77;87.00
72570;BME280;60594;50.204;8.844;2023-04-09T06:16:45;100856.72;;;6.96;85.91
72570;BME280;60594;50.204;8.844;2023-04-09T06:19:15;100851.34;;;6.98;86.22
72570;BME280;60594;50.204;8.844;2023-04-09T06:21:41;100848.66;;;7.13;85.66
72570;BME280;60594;50.204;8.844;2023-04-09T06:24:07;100843.81;;;7.06;86.96
72570;BME280;60594;50.204;8.844;2023-04-09T06:26:34;100851.59;;;7.09;86.17
72570;BME280;60594;50.204;8.844;2023-04-09T06:29:00;100847.91;;;6.96;87.60
72570;BME280;60594;50.204;8.844;2023-04-09T06:31:27;100849.78;;;6.94;87.28
72570;BME280;60594;50.204;8.844;2023-04-09T06:33:53;100855.44;;;7.03;88.44
72570;BME280;60594;50.204;8.844;2023-04-09T06:36:20;100857.66;;;7.27;85.97
72570;BME280;60594;50.204;8.844;2023-04-09T06:38:46;100858.53;;;7.27;85.72
72570;BME280;60594;50.204;8.844;2023-04-09T06:41:13;100852.28;;;7.28;85.62
72570;BME280;60594;50.204;8.844;2023-04-09T06:43:40;100860.03;;;7.47;84.79
72570;BME280;60594;50.204;8.844;2023-04-09T06:46:06;100861.38;;;7.54;85.26
72570;BME280;60594;50.204;8.844;2023-04-09T06:48:33;100863.63;;;7.46;86.42
72570;BME280;60594;50.204;8.844;2023-04-09T06:50:59;100858.81;;;7.52;85.32
72570;BME280;60594;50.204;8.844;2023-04-09T06:53:26;100862.16;;;7.56;87.38
72570;BME280;60594;50.204;8.844;2023-04-09T06:55:53;100858.81;;;7.68;84.69
72570;BME280;60594;50.204;8.844;2023-04-09T06:58:19;100857.00;;;7.68;85.20
72570;BME280;60594;50.204;8.844;2023-04-09T07:00:46;100860.47;;;7.84;84.74
72570;BME280;60594;50.204;8.844;2023-04-09T07:03:13;100867.91;;;7.93;83.55
72570;BME280;60594;50.204;8.844;2023-04-09T07:05:40;100861.44;;;7.83;83.97
72570;BME280;60594;50.204;8.844;2023-04-09T07:08:06;100866.69;;;7.99;84.45
72570;BME280;60594;50.204;8.844;2023-04-09T07:10:33;100865.38;;;8.06;82.83
72570;BME280;60594;50.204;8.844;2023-04-09T07:13:00;100862.28;;;8.13;82.67
72570;BME280;60594;50.204;8.844;2023-04-09T07:15:26;100860.66;;;8.11;83.02
72570;BME280;60594;50.204;8.844;2023-04-09T07:17:53;100871.66;;;8.19;83.87
72570;BME280;60594;50.204;8.844;2023-04-09T07:20:19;100865.94;;;8.40;83.09
72570;BME280;60594;50.204;8.844;2023-04-09T07:22:46;100870.72;;;8.49;81.51
72570;BME280;60594;50.204;8.844;2023-04-09T07:25:13;100869.41;;;8.56;82.23
72570;BME280;60594;50.204;8.844;2023-04-09T07:27:40;100872.06;;;8.56;82.85
72570;BME280;60594;50.204;8.844;2023-04-09T07:30:08;100867.41;;;8.74;82.18
72570;BME280;60594;50.204;8.844;2023-04-09T07:32:36;100863.22;;;8.84;82.40
72570;BME280;60594;50.204;8.844;2023-04-09T07:35:05;100869.00;;;8.90;81.37
72570;BME280;60594;50.204;8.844;2023-04-09T07:37:32;100873.19;;;8.94;80.10
72570;BME280;60594;50.204;8.844;2023-04-09T07:39:58;100875.25;;;9.03;78.61
72570;BME280;60594;50.204;8.844;2023-04-09T07:42:25;100871.25;;;8.96;81.86
72570;BME280;60594;50.204;8.844;2023-04-09T07:44:52;100879.25;;;8.96;80.49
72570;BME280;60594;50.204;8.844;2023-04-09T07:47:20;100866.63;;;8.86;78.94
72570;BME280;60594;50.204;8.844;2023-04-09T07:49:46;100873.09;;;8.96;80.23
72570;BME280;60594;50.204;8.844;2023-04-09T07:52:13;100875.75;;;8.96;80.92
72570;BME280;60594;50.204;8.844;2023-04-09T07:54:40;100875.25;;;9.03;82.03
72570;BME280;60594;50.204;8.844;2023-04-09T07:57:06;100853.97;;;9.03;80.12
72570;BME280;60594;50.204;8.844;2023-04-09T07:59:33;100867.50;;;9.00;78.78
72570;BME280;60594;50.204;8.844;2023-04-09T08:02:01;100880.47;;;9.19;81.37
72570;BME280;60594;50.204;8.844;2023-04-09T08:04:28;100879.47;;;9.34;81.78
72570;BME280;60594;50.204;8.844;2023-04-09T08:06:54;100884.50;;;9.38;79.28
72570;BME280;60594;50.204;8.844;2023-04-09T08:09:21;100890.28;;;9.45;79.72
72570;BME280;60594;50.204;8.844;2023-04-09T08:11:48;100890.78;;;9.64;79.27
72570;BME280;60594;50.204;8.844;2023-04-09T08:14:16;100889.09;;;9.63;77.41
72570;BME280;60594;50.204;8.844;2023-04-09T08:16:45;100892.63;;;9.63;78.16
72570;BME280;60594;50.204;8.844;2023-04-09T08:19:12;100896.78;;;9.67;78.70
72570;BME280;60594;50.204;8.844;2023-04-09T08:21:41;100891.66;;;9.64;76.05
72570;BME280;60594;50.204;8.844;2023-04-09T08:24:09;100889.34;;;9.72;77.34
72570;BME280;60594;50.204;8.844;2023-04-09T08:26:37;100890.69;;;9.65;78.81
72570;BME280;60594;50.204;8.844;2023-04-09T08:29:04;100898.13;;;9.87;78.68
72570;BME280;60594;50.204;8.844;2023-04-09T08:31:30;100893.06;;;9.96;76.90
72570;BME280;60594;50.204;8.844;2023-04-09T08:33:57;100890.84;;;9.76;73.29
72570;BME280;60594;50.204;8.844;2023-04-09T08:36:23;100898.47;;;9.95;73.01
72570;BME280;60594;50.204;8.844;2023-04-09T08:38:51;100905.59;;;9.94;74.33
72570;BME280;60594;50.204;8.844;2023-04-09T08:41:22;100902.72;;;10.11;77.02
72570;BME280;60594;50.204;8.844;2023-04-09T08:43:50;100903.19;;;10.43;73.33
72570;BME280;60594;50.204;8.844;2023-04-09T08:46:18;100906.72;;;10.69;73.91
72570;BME280;60594;50.204;8.844;2023-04-09T08:48:46;100907.63;;;10.30;72.69
72570;BME280;60594;50.204;8.844;2023-04-09T08:51:21;100901.19;;;10.72;73.15
72570;BME280;60594;50.204;8.844;2023-04-09T08:53:51;100907.41;;;11.21;72.05
72570;BME280;60594;50.204;8.844;2023-04-09T08:56:19;100905.47;;;11.48;71.20
72570;BME280;60594;50.204;8.844;2023-04-09T08:58:48;100895.84;;;11.81;70.72
72570;BME280;60594;50.204;8.844;2023-04-09T09:01:22;100913.63;;;11.70;65.31
72570;BME280;60594;50.204;8.844;2023-04-09T09:04:03;100899.53;;;11.91;64.72
72570;BME280;60594;50.204;8.844;2023-04-09T09:06:32;100908.63;;;11.89;68.01
72570;BME280;60594;50.204;8.844;2023-04-09T09:11:29;100907.53;;;12.15;67.33
72570;BME280;60594;50.204;8.844;2023-04-09T09:14:09;100899.00;;;12.10;66.83
72570;BME280;60594;50.204;8.844;2023-04-09T09:16:38;100908.63;;;12.58;64.92
72570;BME280;60594;50.204;8.844;2023-04-09T09:19:09;100896.88;;;12.71;67.18
72570;BME280;60594;50.204;8.844;2023-04-09T09:21:36;100896.94;;;13.15;62.90
72570;BME280;60594;50.204;8.844;2023-04-09T09:24:15;100897.66;;;13.28;61.09
72570;BME280;60594;50.204;8.844;2023-04-09T09:26:42;100899.84;;;13.45;60.47
72570;BME280;60594;50.204;8.844;2023-04-09T09:29:08;100903.19;;;13.69;61.74
72570;BME280;60594;50.204;8.844;2023-04-09T09:31:49;100911.41;;;13.89;60.14
72570;BME280;60594;50.204;8.844;2023-04-09T09:34:17;100905.19;;;14.31;57.55
72570;BME280;60594;50.204;8.844;2023-04-09T09:36:45;100895.84;;;14.25;58.68
72570;BME280;60594;50.204;8.844;2023-04-09T09:39:12;100902.72;;;14.07;59.91
72570;BME280;60594;50.204;8.844;2023-04-09T09:41:39;100897.72;;;14.03;61.63
72570;BME280;60594;50.204;8.844;2023-04-09T09:44:10;100911.50;;;13.44;59.74
72570;BME280;60594;50.204;8.844;2023-04-09T09:46:41;100901.63;;;12.90;60.34
72570;BME280;60594;50.204;8.844;2023-04-09T09:49:08;100895.59;;;13.32;59.44
72570;BME280;60594;50.204;8.844;2023-04-09T09:51:36;100895.91;;;12.72;60.78
72570;BME280;60594;50.204;8.844;2023-04-09T09:54:06;100899.84;;;12.45;65.28
72570;BME280;60594;50.204;8.844;2023-04-09T09:56:37;100895.63;;;12.53;63.77
72570;BME280;60594;50.204;8.844;2023-04-09T09:59:06;100893.97;;;11.94;66.22
72570;BME280;60594;50.204;8.844;2023-04-09T10:01:36;100900.50;;;11.67;65.51
72570;BME280;60594;50.204;8.844;2023-04-09T10:04:05;100897.47;;;11.95;66.24
72570;BME280;60594;50.204;8.844;2023-04-09T10:06:32;100893.69;;;12.21;66.29
72570;BME280;60594;50.204;8.844;2023-04-09T10:09:03;100888.25;;;12.22;62.14
72570;BME280;60594;50.204;8.844;2023-04-09T10:11:32;100889.06;;;12.12;62.93
72570;BME280;60594;50.204;8.844;2023-04-09T10:14:00;100881.09;;;12.23;63.42
72570;BME280;60594;50.204;8.844;2023-04-09T10:16:27;100890.19;;;12.20;63.96
72570;BME280;60594;50.204;8.844;2023-04-09T10:18:55;100890.56;;;11.92;64.93
72570;BME280;60594;50.204;8.844;2023-04-09T10:21:55;100882.03;;;12.11;62.99
72570;BME280;60594;50.204;8.844;2023-04-09T10:24:23;100884.13;;;12.29;60.29
72570;BME280;60594;50.204;8.844;2023-04-09T10:26:53;100871.78;;;12.05;63.22
72570;BME280;60594;50.204;8.844;2023-04-09T10:29:27;100880.03;;;12.02;69.85
72570;BME280;60594;50.204;8.844;2023-04-09T10:32:02;100875.63;;;12.92;62.08
72570;BME280;60594;50.204;8.844;2023-04-09T10:34:34;100876.66;;;13.55;62.69
72570;BME280;60594;50.204;8.844;2023-04-09T10:37:01;100870.53;;;14.07;62.46
72570;BME280;60594;50.204;8.844;2023-04-09T10:39:30;100869.84;;;13.94;61.01
72570;BME280;60594;50.204;8.844;2023-04-09T10:41:58;100869.88;;;13.40;63.91
72570;BME280;60594;50.204;8.844;2023-04-09T10:44:26;100869.44;;;13.24;61.07
72570;BME280;60594;50.204;8.844;2023-04-09T10:46:53;100870.66;;;13.09;59.60
72570;BME280;60594;50.204;8.844;2023-04-09T10:49:21;100873.19;;;12.78;63.14
72570;BME280;60594;50.204;8.844;2023-04-09T10:52:05;100873.66;;;12.72;62.85
72570;BME280;60594;50.204;8.844;2023-04-09T10:57:21;100870.16;;;12.82;60.53
72570;BME280;60594;50.204;8.844;2023-04-09T10:59:49;100865.16;;;12.78;61.43
72570;BME280;60594;50.204;8.844;2023-04-09T11:02:44;100859.00;;;12.43;62.58
72570;BME280;60594;50.204;8.844;2023-04-09T11:07:45;100856.72;;;12.38;65.56
72570;BME280;60594;50.204;8.844;2023-04-09T11:10:13;100865.31;;;11.96;58.85
72570;BME280;60594;50.204;8.844;2023-04-09T11:12:39;100848.72;;;12.04;60.31
72570;BME280;60594;50.204;8.844;2023-04-09T11:15:17;100853.63;;;11.86;60.48
72570;BME280;60594;50.204;8.844;2023-04-09T11:17:47;100854.16;;;11.55;65.31
72570;BME280;60594;50.204;8.844;2023-04-09T11:20:22;100855.88;;;11.80;65.93
72570;BME280;60594;50.204;8.844;2023-04-09T11:22:50;100853.88;;;11.83;65.76
72570;BME280;60594;50.204;8.844;2023-04-09T11:25:23;100858.31;;;12.06;65.69
72570;BME280;60594;50.204;8.844;2023-04-09T11:27:51;100848.66;;;12.27;64.70
72570;BME280;60594;50.204;8.844;2023-04-09T11:30:18;100849.19;;;12.43;61.55
72570;BME280;60594;50.204;8.844;2023-04-09T11:32:46;100844.69;;;12.33;60.62
72570;BME280;60594;50.204;8.844;2023-04-09T11:35:17;100845.03;;;12.28;64.79
72570;BME280;60594;50.204;8.844;2023-04-09T11:37:45;100836.41;;;12.47;65.23
72570;BME280;60594;50.204;8.844;2023-04-09T11:40:18;100837.53;;;12.55;59.92
72570;BME280;60594;50.204;8.844;2023-04-09T11:42:48;100840.56;;;12.40;56.64
72570;BME280;60594;50.204;8.844;2023-04-09T11:45:15;100833.63;;;12.59;61.52
72570;BME280;60594;50.204;8.844;2023-04-09T11:47:43;100828.44;;;13.13;60.01
72570;BME280;60594;50.204;8.844;2023-04-09T11:50:11;100823.72;;;13.59;59.22
72570;BME280;60594;50.204;8.844;2023-04-09T11:52:38;100820.56;;;13.86;60.07
72570;BME280;60594;50.204;8.844;2023-04-09T11:55:09;100829.22;;;13.46;53.10
72570;BME280;60594;50.204;8.844;2023-04-09T11:57:44;100830.00;;;13.37;51.31
72570;BME280;60594;50.204;8.844;2023-04-09T12:00:15;100837.44;;;13.01;52.23
72570;BME280;60594;50.204;8.844;2023-04-09T12:02:57;100838.16;;;12.92;52.95
72570;BME280;60594;50.204;8.844;2023-04-09T12:05:27;100834.25;;;12.52;52.51
72570;BME280;60594;50.204;8.844;2023-04-09T12:10:32;100825.72;;;12.58;51.81
72570;BME280;60594;50.204;8.844;2023-04-09T12:13:06;100835.25;;;12.73;52.77
72570;BME280;60594;50.204;8.844;2023-04-09T12:15:36;100840.38;;;12.98;58.50
72570;BME280;60594;50.204;8.844;2023-04-09T12:18:03;100828.53;;;13.22;53.71
72570;BME280;60594;50.204;8.844;2023-04-09T12:20:38;100827.72;;;13.22;52.10
72570;BME280;60594;50.204;8.844;2023-04-09T12:23:06;100824.19;;;13.64;53.29
72570;BME280;60594;50.204;8.844;2023-04-09T12:25:35;100823.19;;;13.76;49.82
72570;BME280;60594;50.204;8.844;2023-04-09T12:28:03;100822.28;;;14.07;51.03
72570;BME280;60594;50.204;8.844;2023-04-09T12:30:31;100816.06;;;13.86;47.95
72570;BME280;60594;50.204;8.844;2023-04-09T12:32:57;100817.13;;;13.95;48.22
72570;BME280;60594;50.204;8.844;2023-04-09T12:35:24;100816.31;;;14.35;46.57
72570;BME280;60594;50.204;8.844;2023-04-09T12:37:50;100818.16;;;14.65;45.88
72570;BME280;60594;50.204;8.844;2023-04-09T12:40:18;100819.41;;;14.91;53.07
72570;BME280;60594;50.204;8.844;2023-04-09T12:42:45;100803.22;;;15.02;53.70
72570;BME280;60594;50.204;8.844;2023-04-09T12:45:14;100802.44;;;15.20;49.82
72570;BME280;60594;50.204;8.844;2023-04-09T12:47:41;100797.44;;;15.06;50.17
72570;BME280;60594;50.204;8.844;2023-04-09T12:50:09;100802.16;;;14.84;49.37
72570;BME280;60594;50.204;8.844;2023-04-09T12:52:36;100800.34;;;14.94;49.52
72570;BME280;60594;50.204;8.844;2023-04-09T12:55:03;100799.47;;;14.84;51.51
72570;BME280;60594;50.204;8.844;2023-04-09T12:57:30;100795.50;;;14.78;53.55
72570;BME280;60594;50.204;8.844;2023-04-09T12:59:57;100788.28;;;14.79;52.10
72570;BME280;60594;50.204;8.844;2023-04-09T13:02:24;100783.81;;;14.89;50.92
72570;BME280;60594;50.204;8.844;2023-04-09T13:04:50;100789.78;;;15.02;53.73
72570;BME280;60594;50.204;8.844;2023-04-09T13:07:18;100779.84;;;14.53;52.50
72570;BME280;60594;50.204;8.844;2023-04-09T13:09:45;100778.00;;;14.54;51.08
72570;BME280;60594;50.204;8.844;2023-04-09T13:12:13;100780.47;;;14.36;49.05
72570;BME280;60594;50.204;8.844;2023-04-09T13:14:42;100778.31;;;14.60;51.98
72570;BME280;60594;50.204;8.844;2023-04-09T13:17:10;100775.66;;;14.19;48.15
72570;BME280;60594;50.204;8.844;2023-04-09T13:19:36;100770.09;;;14.22;49.90
72570;BME280;60594;50.204;8.844;2023-04-09T13:22:03;100767.00;;;14.27;47.84